createdAt,value
2018-11-28T00:01:07.909Z,2.50
2018-11-28T00:03:36.228Z,2.40
2018-11-28T00:06:04.551Z,2.30
2018-11-28T00:08:32.919Z,2.30
2018-11-28T00:15:57.528Z,2.30
2018-11-28T00:18:25.928Z,2.40
2018-11-28T00:20:54.249Z,2.40
2018-11-28T00:23:22.785Z,2.40
2018-11-28T00:25:51.108Z,2.40
2018-11-28T00:28:19.447Z,2.30
2018-11-28T00:30:47.813Z,2.30
2018-11-28T00:33:16.301Z,2.20
2018-11-28T00:35:44.808Z,2.20
2018-11-28T00:38:13.133Z,2.20
2018-11-28T00:40:41.529Z,2.20
2018-11-28T00:43:10.029Z,2.10
2018-11-28T00:45:38.290Z,2.10
2018-11-28T00:48:06.896Z,2.10
2018-11-28T00:50:35.201Z,2.10
2018-11-28T00:53:03.552Z,2.00
2018-11-28T00:55:31.947Z,1.80
2018-11-28T00:58:00.227Z,1.80
2018-11-28T01:00:28.472Z,1.80
2018-11-28T01:02:56.730Z,2.10
2018-11-28T01:05:25.028Z,1.90
2018-11-28T01:10:22.817Z,1.90
2018-11-28T01:12:51.789Z,1.90
2018-11-28T01:17:48.485Z,1.70
2018-11-28T01:20:17.843Z,2.10
2018-11-28T01:22:46.288Z,2.00
2018-11-28T01:25:15.608Z,1.90
2018-11-28T01:27:43.970Z,1.90
2018-11-28T01:30:15.069Z,1.80
2018-11-28T01:32:43.615Z,1.80
2018-11-28T01:35:13.760Z,1.80
2018-11-28T01:37:42.445Z,1.90
2018-11-28T01:40:12.555Z,1.90
2018-11-28T01:42:40.891Z,1.90
2018-11-28T01:45:10.712Z,1.80
2018-11-28T01:47:39.070Z,1.80
2018-11-28T01:50:10.726Z,1.80
2018-11-28T01:52:39.080Z,1.80
2018-11-28T01:55:09.781Z,1.70
2018-11-28T01:57:38.053Z,1.60
2018-11-28T02:00:15.310Z,1.60
2018-11-28T02:02:43.549Z,1.50
2018-11-28T02:05:12.342Z,1.60
2018-11-28T02:07:40.627Z,1.60
2018-11-28T02:10:13.613Z,1.70
2018-11-28T02:12:41.909Z,1.70
2018-11-28T02:15:13.415Z,1.40
2018-11-28T02:17:41.654Z,1.70
2018-11-28T02:20:13.037Z,1.90
2018-11-28T02:22:41.372Z,1.70
2018-11-28T02:27:38.317Z,1.60
2018-11-28T02:30:17.942Z,1.60
2018-11-28T02:32:46.873Z,1.40
2018-11-28T02:37:43.439Z,1.40
2018-11-28T02:40:13.675Z,1.40
2018-11-28T02:42:41.929Z,1.40
2018-11-28T02:45:14.329Z,1.50
2018-11-28T02:47:42.568Z,1.50
2018-11-28T02:50:10.800Z,1.50
2018-11-28T02:52:39.047Z,1.50
2018-11-28T02:55:10.469Z,1.50
2018-11-28T02:57:39.063Z,1.40
2018-11-28T03:00:10.205Z,1.40
2018-11-28T03:02:38.498Z,1.40
2018-11-28T03:05:08.452Z,1.40
2018-11-28T03:07:36.850Z,1.40
2018-11-28T03:10:08.098Z,1.50
2018-11-28T03:12:36.503Z,1.30
2018-11-28T03:15:05.862Z,1.20
2018-11-28T03:17:34.127Z,1.30
2018-11-28T03:20:02.391Z,1.40
2018-11-28T03:22:30.669Z,1.40
2018-11-28T03:24:58.966Z,1.30
2018-11-28T03:27:27.213Z,1.40
2018-11-28T03:29:55.567Z,1.30
2018-11-28T03:32:23.858Z,1.40
2018-11-28T03:34:52.181Z,1.40
2018-11-28T03:37:20.471Z,1.40
2018-11-28T03:39:48.745Z,1.20
2018-11-28T03:42:17.008Z,1.50
2018-11-28T03:44:45.285Z,1.20
2018-11-28T03:47:13.733Z,1.20
2018-11-28T03:49:42.065Z,1.30
2018-11-28T03:52:10.307Z,1.20
2018-11-28T03:54:38.649Z,1.20
2018-11-28T03:57:06.936Z,1.10
2018-11-28T03:59:35.236Z,1.00
2018-11-28T04:02:03.525Z,1.00
2018-11-28T04:04:31.759Z,0.90
2018-11-28T04:07:00.089Z,0.80
2018-11-28T04:09:28.388Z,0.80
2018-11-28T04:11:56.732Z,0.70
2018-11-28T04:14:24.993Z,0.80
2018-11-28T04:16:53.261Z,0.90
2018-11-28T04:21:49.650Z,1.10
2018-11-28T04:24:17.894Z,1.10
2018-11-28T04:26:46.160Z,1.10
2018-11-28T04:29:14.543Z,1.10
2018-11-28T04:31:42.831Z,1.00
2018-11-28T04:34:11.114Z,1.10
2018-11-28T04:36:39.382Z,1.10
2018-11-28T04:39:08.578Z,1.00
2018-11-28T04:41:36.834Z,1.20
2018-11-28T04:46:33.242Z,1.10
2018-11-28T04:49:01.486Z,1.00
2018-11-28T04:51:29.731Z,0.90
2018-11-28T04:53:57.979Z,0.80
2018-11-28T04:56:26.262Z,0.70
2018-11-28T04:58:54.558Z,0.70
2018-11-28T05:01:22.890Z,0.70
2018-11-28T05:03:51.236Z,0.70
2018-11-28T05:07:32.248Z,0.70
2018-11-28T05:10:00.442Z,0.90
2018-11-28T05:12:28.719Z,0.60
2018-11-28T05:14:56.965Z,0.60
2018-11-28T05:17:25.281Z,0.60
2018-11-28T05:19:53.565Z,0.60
2018-11-28T05:22:21.815Z,0.70
2018-11-28T05:24:50.102Z,0.70
2018-11-28T05:27:18.485Z,0.70
2018-11-28T05:29:46.764Z,0.90
2018-11-28T05:32:15.025Z,0.80
2018-11-28T05:34:43.358Z,0.90
2018-11-28T05:37:11.681Z,0.80
2018-11-28T05:39:40.015Z,0.30
2018-11-28T05:42:08.247Z,0.20
2018-11-28T05:44:36.590Z,0.70
2018-11-28T05:47:04.857Z,0.70
2018-11-28T05:49:33.140Z,0.50
2018-11-28T05:52:01.439Z,0.50
2018-11-28T05:54:29.707Z,0.40
2018-11-28T05:56:57.992Z,0.30
2018-11-28T05:59:27.554Z,0.40
2018-11-28T06:01:54.574Z,0.40
2018-11-28T06:04:22.809Z,0.40
2018-11-28T06:11:47.149Z,0.40
2018-11-28T06:14:15.371Z,0.20
2018-11-28T06:16:43.599Z,0.30
2018-11-28T06:19:11.842Z,0.30
2018-11-28T06:21:40.083Z,0.30
2018-11-28T06:24:08.332Z,0.30
2018-11-28T06:26:36.664Z,0.30
2018-11-28T06:29:05.048Z,0.20
2018-11-28T06:31:33.310Z,0.30
2018-11-28T06:34:01.635Z,0.30
2018-11-28T06:36:29.972Z,0.40
2018-11-28T06:38:58.361Z,0.40
2018-11-28T06:41:26.814Z,0.40
2018-11-28T06:43:55.271Z,0.30
2018-11-28T06:46:23.546Z,0.30
2018-11-28T06:48:51.913Z,0.30
2018-11-28T06:51:20.170Z,0.20
2018-11-28T06:53:49.513Z,0.20
2018-11-28T06:56:17.840Z,0.00
2018-11-28T06:58:46.246Z,0.20
2018-11-28T07:06:10.865Z,-0.20
2018-11-28T07:08:39.056Z,0.00
2018-11-28T07:13:35.400Z,0.00
2018-11-28T07:16:03.648Z,0.00
2018-11-28T07:21:05.313Z,-0.20
2018-11-28T07:23:33.495Z,-0.20
2018-11-28T07:26:01.765Z,-0.30
2018-11-28T07:28:29.962Z,-0.40
2018-11-28T07:30:58.196Z,-0.50
2018-11-28T07:33:26.423Z,-0.60
2018-11-28T07:35:54.778Z,-0.60
2018-11-28T07:38:23.032Z,-0.70
2018-11-28T07:40:51.439Z,-0.70
2018-11-28T07:43:19.821Z,-0.70
2018-11-28T07:45:49.394Z,-0.60
2018-11-28T07:48:17.643Z,-0.60
2018-11-28T07:50:45.931Z,-0.60
2018-11-28T07:53:14.435Z,-0.60
2018-11-28T07:55:42.824Z,-0.60
2018-11-28T07:58:11.052Z,-0.10
2018-11-28T08:00:39.234Z,-0.50
2018-11-28T08:03:08.682Z,-0.40
2018-11-28T08:08:07.116Z,-0.50
2018-11-28T08:10:35.385Z,-0.90
2018-11-28T08:15:31.602Z,-0.40
2018-11-28T08:17:59.857Z,-0.20
2018-11-28T08:20:28.110Z,-0.10
2018-11-28T08:22:56.473Z,0.10
2018-11-28T08:25:27.683Z,0.20
2018-11-28T08:27:53.012Z,0.40
2018-11-28T08:30:22.438Z,1.90
2018-11-28T08:32:50.770Z,2.00
2018-11-28T08:35:19.066Z,2.30
2018-11-28T08:37:47.394Z,2.20
2018-11-28T08:40:17.906Z,2.10
2018-11-28T08:42:46.139Z,2.10
2018-11-28T08:45:16.273Z,2.30
2018-11-28T08:47:45.488Z,2.30
2018-11-28T08:50:17.011Z,2.30
2018-11-28T08:52:45.365Z,2.40
2018-11-28T08:55:13.859Z,2.40
2018-11-28T08:57:42.209Z,2.60
2018-11-28T09:00:15.634Z,2.80
2018-11-28T09:02:52.676Z,2.80
2018-11-28T09:05:20.893Z,2.90
2018-11-28T09:07:49.182Z,2.90
2018-11-28T09:10:18.211Z,2.90
2018-11-28T09:12:46.902Z,3.00
2018-11-28T09:15:16.268Z,3.10
2018-11-28T09:20:14.138Z,3.30
2018-11-28T09:22:42.461Z,3.40
2018-11-28T09:25:12.729Z,3.50
2018-11-28T09:27:41.058Z,3.80
2018-11-28T09:30:14.856Z,4.00
2018-11-28T09:32:43.115Z,4.10
2018-11-28T09:35:12.034Z,4.10
2018-11-28T09:37:45.435Z,4.30
2018-11-28T09:40:15.529Z,4.40
2018-11-28T09:42:43.846Z,4.60
2018-11-28T09:45:15.237Z,4.70
2018-11-28T09:47:43.572Z,4.80
2018-11-28T09:52:40.706Z,4.90
2018-11-28T09:55:13.323Z,4.90
2018-11-28T09:57:41.620Z,4.90
2018-11-28T10:00:14.111Z,5.30
2018-11-28T10:02:42.526Z,5.30
2018-11-28T10:05:12.580Z,5.20
2018-11-28T10:07:41.035Z,5.40
2018-11-28T10:10:11.467Z,5.70
2018-11-28T10:12:39.889Z,5.90
2018-11-28T10:15:12.985Z,5.90
2018-11-28T10:17:41.435Z,5.80
2018-11-28T10:20:11.017Z,5.80
2018-11-28T10:22:39.670Z,5.90
2018-11-28T10:25:09.976Z,5.80
2018-11-28T10:27:38.382Z,5.80
2018-11-28T10:30:12.639Z,5.70
2018-11-28T10:32:41.103Z,5.80
2018-11-28T10:35:09.536Z,5.60
2018-11-28T10:40:23.580Z,6.00
2018-11-28T10:42:59.778Z,6.00
2018-11-28T10:50:24.741Z,5.90
2018-11-28T10:52:53.121Z,6.00
2018-11-28T10:57:50.021Z,5.80
2018-11-28T11:00:27.480Z,5.80
2018-11-28T11:03:01.308Z,5.90
2018-11-28T11:05:35.188Z,5.90
2018-11-28T11:08:08.855Z,5.90
2018-11-28T11:10:43.566Z,5.90
2018-11-28T11:13:16.285Z,6.00
2018-11-28T11:15:48.859Z,5.80
2018-11-28T11:18:17.261Z,5.80
2018-11-28T11:23:13.690Z,5.80
2018-11-28T11:25:42.154Z,5.70
2018-11-28T11:28:10.608Z,5.50
2018-11-28T11:30:38.978Z,5.60
2018-11-28T11:33:07.288Z,5.50
2018-11-28T11:35:35.695Z,5.70
2018-11-28T11:38:04.175Z,5.80
2018-11-28T11:40:32.530Z,5.80
2018-11-28T11:43:01.058Z,5.80
2018-11-28T11:45:29.401Z,5.80
2018-11-28T11:52:53.947Z,5.70
2018-11-28T12:02:25.975Z,4.90
2018-11-28T12:04:54.373Z,4.90
2018-11-28T12:07:22.853Z,5.00
2018-11-28T12:12:19.262Z,5.10
2018-11-28T12:14:47.618Z,5.00
2018-11-28T12:17:16.197Z,4.90
2018-11-28T12:19:44.598Z,4.80
2018-11-28T12:22:12.980Z,4.90
2018-11-28T12:24:41.350Z,4.90
2018-11-28T12:27:09.677Z,4.90
2018-11-28T12:29:38.062Z,4.90
2018-11-28T12:34:34.630Z,5.10
2018-11-28T12:37:02.976Z,5.20
2018-11-28T12:46:55.786Z,4.90
2018-11-28T12:49:24.176Z,4.90
2018-11-28T12:51:52.550Z,4.90
2018-11-28T12:56:49.086Z,4.70
2018-11-28T12:59:17.460Z,4.60
2018-11-28T13:01:45.751Z,4.60
2018-11-28T13:04:14.082Z,4.60
2018-11-28T13:06:42.476Z,4.50
2018-11-28T13:09:10.958Z,4.50
2018-11-28T13:11:39.176Z,4.50
2018-11-28T13:14:07.530Z,4.50
2018-11-28T13:16:35.962Z,4.40
2018-11-28T13:19:04.303Z,4.50
2018-11-28T13:21:32.647Z,4.50
2018-11-28T13:24:01.032Z,4.50
2018-11-28T13:26:29.393Z,4.40
2018-11-28T13:28:57.750Z,4.70
2018-11-28T13:31:26.108Z,4.70
2018-11-28T13:33:54.565Z,4.60
2018-11-28T13:36:23.025Z,4.50
2018-11-28T13:38:51.405Z,4.40
2018-11-28T13:41:19.727Z,4.30
2018-11-28T13:43:48.160Z,4.40
2018-11-28T13:46:16.611Z,4.30
2018-11-28T13:48:45.009Z,4.40
2018-11-28T13:51:13.437Z,4.40
2018-11-28T13:53:41.749Z,4.40
2018-11-28T13:58:38.461Z,4.30
2018-11-28T14:01:06.934Z,4.20
2018-11-28T14:03:35.326Z,4.20
2018-11-28T14:08:31.711Z,4.20
2018-11-28T14:13:28.193Z,4.10
2018-11-28T14:15:56.673Z,4.10
2018-11-28T14:18:25.125Z,4.10
2018-11-28T14:23:21.565Z,3.90
2018-11-28T14:25:50.003Z,3.90
2018-11-28T14:28:18.346Z,3.90
2018-11-28T14:33:15.130Z,4.30
2018-11-28T14:45:36.518Z,3.70
2018-11-28T14:53:02.258Z,3.60
2018-11-28T14:55:32.919Z,3.60
2018-11-28T14:58:01.866Z,3.60
2018-11-28T15:00:31.919Z,3.60
2018-11-28T15:03:07.120Z,3.60
2018-11-28T15:05:55.680Z,3.60
2018-11-28T15:08:24.205Z,3.60
2018-11-28T15:11:00.946Z,3.60
2018-11-28T15:13:29.346Z,3.60
2018-11-28T15:15:57.708Z,3.70
2018-11-28T15:18:26.116Z,3.70
2018-11-28T15:20:54.482Z,7.50
2018-11-28T15:23:23.007Z,3.60
2018-11-28T15:25:51.492Z,3.60
2018-11-28T15:28:20.016Z,3.60
2018-11-28T15:30:48.385Z,3.50
2018-11-28T15:33:16.737Z,3.40
2018-11-28T15:35:45.095Z,3.50
2018-11-28T15:38:13.451Z,3.50
2018-11-28T15:40:41.889Z,3.60
2018-11-28T15:43:10.332Z,3.50
2018-11-28T15:45:38.664Z,3.50
2018-11-28T15:48:07.272Z,2.90
2018-11-28T15:50:35.588Z,3.40
2018-11-28T16:00:28.219Z,3.50
2018-11-28T16:02:56.556Z,3.40
2018-11-28T16:05:24.771Z,3.40
2018-11-28T16:07:53.123Z,3.40
2018-11-28T16:10:26.942Z,3.40
2018-11-28T16:12:55.339Z,3.20
2018-11-28T16:17:52.545Z,3.20
2018-11-28T16:22:49.158Z,3.30
2018-11-28T16:25:17.629Z,3.30
2018-11-28T16:27:46.241Z,3.50
2018-11-28T16:30:15.754Z,3.40
2018-11-28T16:32:46.088Z,3.50
2018-11-28T16:35:15.516Z,3.50
2018-11-28T16:37:44.015Z,3.90
2018-11-28T16:40:14.329Z,3.90
2018-11-28T16:42:42.891Z,3.90
2018-11-28T16:45:19.059Z,3.80
2018-11-28T16:47:47.998Z,3.80
2018-11-28T16:50:17.034Z,3.70
2018-11-28T16:52:45.626Z,3.70
2018-11-28T16:57:44.918Z,3.70
2018-11-28T17:00:15.278Z,3.60
2018-11-28T17:02:43.621Z,3.60
2018-11-28T17:10:12.261Z,3.60
2018-11-28T17:12:40.614Z,3.50
2018-11-28T17:15:12.487Z,3.50
2018-11-28T17:17:40.958Z,3.30
2018-11-28T17:20:14.022Z,3.30
2018-11-28T17:22:42.562Z,3.30
2018-11-28T17:27:46.322Z,3.50
2018-11-28T17:30:18.802Z,3.80
2018-11-28T17:32:43.860Z,3.90
2018-11-28T17:35:13.818Z,3.90
2018-11-28T17:37:42.983Z,3.70
2018-11-28T17:40:17.368Z,3.50
2018-11-28T17:42:46.969Z,3.50
2018-11-28T17:45:16.311Z,3.60
2018-11-28T17:47:44.706Z,3.50
2018-11-28T17:50:14.330Z,3.60
2018-11-28T17:52:51.313Z,3.60
2018-11-28T17:55:19.690Z,3.40
2018-11-28T17:57:48.149Z,3.50
2018-11-28T18:00:17.483Z,3.50
2018-11-28T18:02:45.808Z,3.60
2018-11-28T18:05:14.204Z,3.50
2018-11-28T18:07:42.546Z,3.40
2018-11-28T18:10:18.829Z,3.40
2018-11-28T18:12:58.403Z,3.40
2018-11-28T18:15:26.732Z,3.20
2018-11-28T18:17:56.143Z,3.20
2018-11-28T18:20:25.582Z,3.20
2018-11-28T18:22:53.923Z,3.00
2018-11-28T18:27:51.066Z,3.20
2018-11-28T18:35:15.641Z,3.20
2018-11-28T18:37:44.077Z,3.30
2018-11-28T18:40:12.934Z,3.30
2018-11-28T18:42:42.410Z,3.30
2018-11-28T18:45:18.362Z,3.30
2018-11-28T18:47:45.612Z,3.30
2018-11-28T18:52:42.222Z,3.20
2018-11-28T18:55:16.616Z,3.20
2018-11-28T18:57:41.304Z,3.10
2018-11-28T19:00:18.630Z,3.20
2018-11-28T19:02:46.958Z,3.10
2018-11-28T19:05:15.308Z,3.10
2018-11-28T19:07:43.687Z,3.10
2018-11-28T19:10:17.095Z,3.10
2018-11-28T19:12:45.466Z,3.10
2018-11-28T19:17:44.621Z,3.20
2018-11-28T19:20:14.005Z,3.20
2018-11-28T19:22:42.847Z,3.20
2018-11-28T19:25:13.072Z,3.10
2018-11-28T19:27:41.339Z,3.20
2018-11-28T19:30:13.654Z,3.10
2018-11-28T19:32:41.918Z,3.10
2018-11-28T19:35:10.975Z,3.00
2018-11-28T19:37:40.049Z,3.10
2018-11-28T19:40:16.901Z,3.10
2018-11-28T19:42:45.139Z,3.20
2018-11-28T19:45:13.354Z,3.10
2018-11-28T19:50:12.516Z,2.00
2018-11-28T19:52:40.785Z,3.00
2018-11-28T19:55:09.515Z,2.90
2018-11-28T20:00:10.204Z,2.90
2018-11-28T20:02:38.385Z,2.90
2018-11-28T20:05:06.620Z,2.90
2018-11-28T20:07:34.979Z,2.90
2018-11-28T20:10:03.251Z,3.00
2018-11-28T20:12:31.417Z,3.00
2018-11-28T20:14:59.733Z,2.90
2018-11-28T20:17:27.874Z,2.80
2018-11-28T20:19:56.062Z,2.80
2018-11-28T20:22:24.254Z,2.90
2018-11-28T20:24:52.475Z,2.80
2018-11-28T20:27:20.659Z,2.90
2018-11-28T20:29:48.875Z,2.80
2018-11-28T20:32:17.081Z,2.80
2018-11-28T20:34:45.234Z,2.80
2018-11-28T20:37:13.443Z,2.70
2018-11-28T20:39:41.627Z,2.60
2018-11-28T20:42:09.824Z,2.70
2018-11-28T20:44:38.007Z,2.60
2018-11-28T20:47:06.209Z,2.70
2018-11-28T20:54:30.321Z,3.00
2018-11-28T20:56:58.524Z,2.70
2018-11-28T20:59:26.681Z,2.80
2018-11-28T21:01:54.918Z,2.80
2018-11-28T21:04:23.078Z,2.80
2018-11-28T21:06:51.294Z,2.80
2018-11-28T21:09:19.463Z,2.80
2018-11-28T21:11:47.755Z,2.80
2018-11-28T21:14:15.984Z,2.80
2018-11-28T21:16:44.193Z,2.70
2018-11-28T21:19:12.472Z,2.70
2018-11-28T21:21:40.727Z,2.70
2018-11-28T21:24:08.907Z,2.70
2018-11-28T21:26:37.126Z,2.60
2018-11-28T21:29:05.407Z,2.70
2018-11-28T21:31:33.645Z,2.70
2018-11-28T21:34:01.814Z,2.70
2018-11-28T21:36:30.201Z,2.60
2018-11-28T21:38:58.460Z,2.50
2018-11-28T21:41:26.826Z,2.10
2018-11-28T21:43:55.214Z,2.50
2018-11-28T21:56:22.416Z,2.30
2018-11-28T21:58:50.600Z,2.40
2018-11-28T22:01:18.764Z,2.40
2018-11-28T22:03:46.994Z,2.40
2018-11-28T22:06:15.263Z,2.40
2018-11-28T22:08:43.445Z,2.40
2018-11-28T22:11:11.689Z,2.50
2018-11-28T22:13:39.877Z,2.50
2018-11-28T22:16:08.094Z,2.50
2018-11-28T22:18:36.340Z,2.50
2018-11-28T22:21:05.149Z,2.50
2018-11-28T22:23:33.329Z,2.50
2018-11-28T22:26:01.505Z,2.50
2018-11-28T22:28:29.764Z,2.40
2018-11-28T22:30:57.932Z,2.40
2018-11-28T22:33:26.125Z,2.30
2018-11-28T22:35:54.425Z,2.40
2018-11-28T22:38:22.682Z,2.40
2018-11-28T22:40:50.955Z,2.40
2018-11-28T22:43:19.204Z,2.40
2018-11-28T22:45:47.453Z,2.30
2018-11-28T22:48:15.737Z,2.20
2018-11-28T22:58:08.026Z,1.90
2018-11-28T23:00:41.685Z,2.10
2018-11-28T23:03:10.627Z,2.10
2018-11-28T23:05:45.972Z,2.10
2018-11-28T23:08:15.422Z,2.10
2018-11-28T23:10:43.735Z,2.00
2018-11-28T23:13:13.907Z,2.00
2018-11-28T23:15:42.236Z,2.10
2018-11-28T23:18:11.056Z,2.10
2018-11-28T23:20:39.347Z,2.10
2018-11-28T23:23:08.414Z,2.00
2018-11-28T23:25:37.276Z,1.90
2018-11-28T23:28:05.938Z,1.90
2018-11-28T23:30:34.208Z,1.90
2018-11-28T23:33:02.948Z,2.00
2018-11-28T23:35:31.450Z,2.00
2018-11-28T23:38:00.049Z,2.00
2018-11-28T23:40:28.303Z,1.90
2018-11-28T23:42:56.712Z,2.00
2018-11-28T23:45:25.716Z,2.00
2018-11-28T23:47:54.290Z,1.90
2018-11-28T23:50:23.353Z,1.70
2018-11-28T23:52:52.441Z,1.80
2018-11-28T23:55:22.658Z,1.80
